Time;durP1;ratioP1;P1;durP2;ratioP2;P2;SDS_P1;SDS_P2;PMS_P1;PMS_P2;Temp;Humidity;BMP_temperature;BMP_pressure;BME280_temperature;BME280_humidity;BME280_pressure;Samples;Min_cycle;Max_cycle;Signal;HPM_P1;HPM_P2
2021/04/03 00:00:13;;;;;;;5.88;3.03;;;6.10;99.90;;;;;;5050027;28;20217;-69
2021/04/03 00:02:41;;;;;;;4.93;2.58;;;6.00;99.90;;;;;;5033890;28;20190;-68
2021/04/03 00:05:11;;;;;;;3.65;1.95;;;6.00;99.90;;;;;;5053531;22;20220;-69
2021/04/03 00:07:39;;;;;;;3.20;2.95;;;5.90;99.90;;;;;;5034483;28;20217;-69
2021/04/03 00:10:08;;;;;;;7.53;2.47;;;5.80;99.90;;;;;;5048513;28;20209;-69
2021/04/03 00:12:35;;;;;;;3.38;2.20;;;5.80;99.90;;;;;;5049178;28;20185;-70
2021/04/03 00:15:05;;;;;;;2.83;2.50;;;5.80;99.90;;;;;;5073758;28;20188;-70
2021/04/03 00:17:32;;;;;;;5.35;2.70;;;5.80;99.90;;;;;;5074445;28;20303;-70
2021/04/03 00:19:59;;;;;;;5.70;2.10;;;5.80;99.90;;;;;;5073632;28;20253;-68
2021/04/03 00:22:26;;;;;;;6.88;2.80;;;5.90;99.90;;;;;;5073954;28;20176;-70
2021/04/03 00:24:53;;;;;;;4.03;2.95;;;5.70;99.90;;;;;;5073804;28;20261;-69
2021/04/03 00:27:20;;;;;;;5.55;3.17;;;5.50;99.90;;;;;;5073838;28;20279;-69
2021/04/03 00:29:47;;;;;;;3.05;2.75;;;5.40;99.90;;;;;;5058147;28;20235;-69
2021/04/03 00:32:15;;;;;;;4.03;3.03;;;5.60;99.90;;;;;;5052322;28;20680;-70
2021/04/03 00:34:42;;;;;;;3.67;2.92;;;5.50;99.90;;;;;;5046092;28;20185;-68
2021/04/03 00:37:10;;;;;;;3.97;2.78;;;5.30;99.90;;;;;;5053196;28;20735;-69
2021/04/03 00:39:37;;;;;;;6.20;2.90;;;5.40;99.90;;;;;;5053101;28;20185;-69
2021/04/03 00:42:16;;;;;;;3.70;2.45;;;5.40;99.90;;;;;;5053175;28;20759;-69
2021/04/03 00:44:47;;;;;;;9.38;3.30;;;5.20;99.90;;;;;;5053591;28;20207;-68
2021/04/03 00:47:16;;;;;;;5.15;2.58;;;5.10;99.90;;;;;;5035278;28;20209;-68
2021/04/03 00:49:44;;;;;;;6.43;3.22;;;5.00;99.90;;;;;;5053204;28;20225;-68
2021/04/03 00:52:13;;;;;;;5.28;2.60;;;5.00;99.90;;;;;;5053646;28;20243;-69
2021/04/03 00:54:41;;;;;;;4.80;2.67;;;4.90;99.90;;;;;;5035321;28;20211;-68
2021/04/03 00:57:10;;;;;;;5.65;4.55;;;5.00;99.90;;;;;;5035082;28;20220;-68
2021/04/03 00:59:38;;;;;;;4.22;3.83;;;5.20;99.90;;;;;;5052038;28;20157;-69
2021/04/03 01:02:07;;;;;;;6.57;3.40;;;5.10;99.90;;;;;;5053341;28;20176;-70
2021/04/03 01:04:38;;;;;;;4.63;2.15;;;4.90;99.90;;;;;;5052928;28;20556;-69
2021/04/03 01:07:08;;;;;;;5.18;3.63;;;4.90;99.90;;;;;;5034667;28;20693;-70
2021/04/03 01:09:39;;;;;;;5.35;2.67;;;4.90;99.90;;;;;;5034832;28;20588;-68
2021/04/03 01:12:25;;;;;;;23.88;5.40;;;4.70;99.90;;;;;;5052802;28;20231;-68
2021/04/03 01:15:05;;;;;;;5.30;3.65;;;4.60;99.90;;;;;;5053051;28;20212;-69
2021/04/03 01:17:48;;;;;;;4.05;2.22;;;4.50;99.90;;;;;;5052926;28;20208;-69
2021/04/03 01:20:48;;;;;;;6.45;2.90;;;4.50;99.90;;;;;;5052883;28;20180;-69
2021/04/03 01:24:01;;;;;;;3.17;2.75;;;4.60;99.90;;;;;;5048391;28;20543;-68
2021/04/03 01:27:10;;;;;;;2.95;2.53;;;4.70;99.90;;;;;;5034642;28;20262;-68
2021/04/03 01:30:00;;;;;;;5.10;2.60;;;4.60;99.90;;;;;;5034638;28;20705;-69
2021/04/03 01:32:45;;;;;;;5.15;3.60;;;4.40;99.90;;;;;;5034723;28;20193;-68
2021/04/03 01:35:21;;;;;;;4.50;3.38;;;4.50;99.90;;;;;;5052792;28;20177;-68
2021/04/03 01:37:55;;;;;;;6.10;3.55;;;4.50;99.90;;;;;;5052586;28;20611;-69
2021/04/03 01:40:25;;;;;;;4.60;2.83;;;4.40;99.90;;;;;;5034986;28;20734;-68
2021/04/03 01:43:00;;;;;;;3.72;2.60;;;4.50;99.90;;;;;;5052993;28;20203;-69
2021/04/03 01:45:29;;;;;;;9.75;2.60;;;4.30;99.90;;;;;;5052639;28;20193;-69
2021/04/03 01:47:59;;;;;;;5.00;3.05;;;4.30;99.90;;;;;;5052131;28;20240;-68
2021/04/03 01:50:27;;;;;;;5.00;2.88;;;4.20;99.90;;;;;;5034571;28;20217;-68
2021/04/03 01:52:55;;;;;;;9.18;4.10;;;4.20;99.90;;;;;;5030962;28;20197;-69
2021/04/03 01:55:25;;;;;;;8.82;3.13;;;4.40;99.90;;;;;;5033928;28;20690;-68
2021/04/03 01:57:54;;;;;;;8.18;2.53;;;4.50;99.90;;;;;;5033668;28;20217;-69
2021/04/03 02:00:25;;;;;;;6.43;1.75;;;4.30;99.90;;;;;;5034717;28;20185;-70
2021/04/03 02:03:00;;;;;;;7.40;3.10;;;4.20;99.90;;;;;;5037546;28;20248;-69
2021/04/03 02:05:30;;;;;;;3.10;2.47;;;4.20;99.90;;;;;;5037385;28;20560;-68
2021/04/03 02:08:16;;;;;;;7.30;3.10;;;4.40;99.90;;;;;;5036330;28;20701;-69
2021/04/03 02:10:53;;;;;;;3.78;2.53;;;4.30;99.90;;;;;;5034882;28;20275;-68
2021/04/03 02:13:21;;;;;;;3.90;2.22;;;4.30;99.90;;;;;;5036826;28;20200;-70
2021/04/03 02:15:53;;;;;;;3.67;2.50;;;4.10;99.90;;;;;;5034971;28;20200;-69
2021/04/03 02:18:23;;;;;;;6.30;2.38;;;4.10;99.90;;;;;;5036387;28;20213;-69
2021/04/03 02:20:50;;;;;;;3.80;3.42;;;4.00;99.90;;;;;;5036599;28;20245;-67
2021/04/03 02:23:18;;;;;;;4.25;2.83;;;3.90;99.90;;;;;;5051314;28;20194;-72
2021/04/03 02:25:46;;;;;;;5.65;3.85;;;3.90;99.90;;;;;;5066342;28;20230;-69
2021/04/03 02:28:18;;;;;;;7.88;4.03;;;3.90;99.90;;;;;;5039871;28;20789;-69
2021/04/03 02:30:49;;;;;;;7.30;4.22;;;3.90;99.90;;;;;;5055755;28;20205;-69
2021/04/03 02:33:16;;;;;;;5.75;3.70;;;3.90;99.90;;;;;;5039399;28;20193;-69
2021/04/03 02:35:45;;;;;;;3.65;2.50;;;3.80;99.90;;;;;;5037981;28;20211;-69
2021/04/03 02:38:13;;;;;;;9.30;3.20;;;3.80;99.90;;;;;;5055863;28;20212;-68
2021/04/03 02:40:49;;;;;;;5.28;3.10;;;3.70;99.90;;;;;;5038903;28;20212;-68
2021/04/03 02:43:25;;;;;;;5.38;3.10;;;3.90;99.90;;;;;;5037586;28;20665;-68
2021/04/03 02:45:56;;;;;;;7.63;3.40;;;3.80;99.90;;;;;;5056098;28;20203;-69
2021/04/03 02:48:29;;;;;;;3.33;2.03;;;4.30;99.90;;;;;;5037166;28;20251;-67
2021/04/03 02:51:01;;;;;;;5.47;3.70;;;4.70;99.90;;;;;;5053538;28;20618;-69
2021/04/03 02:53:33;;;;;;;4.28;2.88;;;4.40;99.90;;;;;;5036072;28;20197;-69
2021/04/03 02:56:12;;;;;;;4.82;2.97;;;4.20;99.90;;;;;;5036495;28;20207;-69
2021/04/03 02:58:43;;;;;;;13.25;3.20;;;4.10;99.90;;;;;;5035238;28;20566;-68
2021/04/03 03:01:16;;;;;;;5.90;2.45;;;3.90;99.90;;;;;;5035760;28;20219;-69
2021/04/03 03:03:54;;;;;;;8.73;3.50;;;3.90;99.90;;;;;;5036967;28;20193;-69
2021/04/03 03:06:24;;;;;;;4.10;2.70;;;3.80;99.90;;;;;;5036652;28;20603;-69
2021/04/03 03:08:54;;;;;;;3.80;2.33;;;3.70;99.90;;;;;;5056327;28;20169;-68
2021/04/03 03:11:26;;;;;;;12.20;3.78;;;3.50;99.90;;;;;;5060943;28;20197;-69
2021/04/03 03:13:56;;;;;;;3.28;2.25;;;3.50;99.90;;;;;;5057804;28;20181;-68
2021/04/03 03:16:25;;;;;;;6.20;2.65;;;3.40;99.90;;;;;;5058372;28;20222;-70
2021/04/03 03:18:53;;;;;;;5.55;3.28;;;3.40;99.90;;;;;;5059623;28;20201;-69
2021/04/03 03:21:24;;;;;;;4.28;2.70;;;3.30;99.90;;;;;;5058952;28;20177;-69
2021/04/03 03:23:53;;;;;;;8.20;3.20;;;3.30;99.90;;;;;;5058401;28;20622;-68
2021/04/03 03:26:20;;;;;;;3.17;1.80;;;3.30;99.90;;;;;;5037989;28;20205;-69
2021/04/03 03:28:49;;;;;;;3.65;3.30;;;3.30;99.90;;;;;;5037867;28;20203;-68
2021/04/03 03:31:21;;;;;;;10.40;4.75;;;3.40;99.90;;;;;;5037250;28;20221;-69
2021/04/03 03:33:50;;;;;;;6.75;3.17;;;3.40;99.90;;;;;;5037236;28;20264;-68
2021/04/03 03:36:18;;;;;;;6.53;3.40;;;3.30;99.90;;;;;;5055073;28;20405;-70
2021/04/03 03:38:50;;;;;;;8.40;2.75;;;3.20;99.90;;;;;;5036762;28;20200;-70
2021/04/03 03:41:20;;;;;;;6.50;3.63;;;3.20;99.90;;;;;;5036888;28;20246;-69
2021/04/03 03:43:48;;;;;;;8.00;4.68;;;3.40;99.90;;;;;;5039275;28;20191;-69
2021/04/03 03:46:15;;;;;;;5.60;4.95;;;3.30;99.90;;;;;;5036478;28;20189;-69
2021/04/03 03:48:44;;;;;;;9.70;4.25;;;3.20;99.90;;;;;;5036768;28;20274;-69
2021/04/03 03:51:11;;;;;;;5.38;3.20;;;3.10;99.90;;;;;;5054562;28;20220;-69
2021/04/03 03:53:48;;;;;;;4.15;3.15;;;3.20;99.90;;;;;;5036756;28;20271;-68
2021/04/03 03:56:16;;;;;;;3.05;2.10;;;3.10;99.90;;;;;;5036409;28;20276;-69
2021/04/03 03:58:44;;;;;;;7.15;3.08;;;3.50;99.90;;;;;;5054504;28;20183;-68
2021/04/03 04:01:11;;;;;;;5.68;3.95;;;3.50;99.90;;;;;;5054409;28;20185;-68
2021/04/03 04:03:40;;;;;;;6.72;3.60;;;3.60;99.90;;;;;;5054572;28;20333;-67
2021/04/03 04:06:13;;;;;;;3.65;2.55;;;3.30;99.90;;;;;;5054150;28;20537;-70
2021/04/03 04:08:45;;;;;;;7.47;3.65;;;3.20;99.90;;;;;;5036539;28;20207;-69
2021/04/03 04:11:18;;;;;;;5.22;2.67;;;3.20;99.90;;;;;;5054808;28;20697;-70
2021/04/03 04:13:48;;;;;;;16.27;3.35;;;3.10;99.90;;;;;;5054671;28;20177;-70
2021/04/03 04:16:23;;;;;;;3.83;2.55;;;2.90;99.90;;;;;;5036181;28;20766;-70
2021/04/03 04:18:51;;;;;;;3.95;2.63;;;2.80;99.90;;;;;;5036520;28;20209;-67
2021/04/03 04:21:18;;;;;;;4.72;3.28;;;2.90;99.90;;;;;;5054326;28;20180;-68
2021/04/03 04:23:47;;;;;;;8.55;4.00;;;3.30;99.90;;;;;;5036303;28;20204;-69
2021/04/03 04:26:14;;;;;;;4.47;2.50;;;3.10;99.90;;;;;;5054574;28;20263;-69
2021/04/03 04:28:47;;;;;;;13.20;5.88;;;3.10;99.90;;;;;;5036065;28;20224;-69
2021/04/03 04:31:18;;;;;;;4.25;2.00;;;2.90;99.90;;;;;;5036275;28;20220;-69
2021/04/03 04:34:00;;;;;;;3.15;1.83;;;2.90;99.90;;;;;;5036657;28;20711;-69
2021/04/03 04:36:27;;;;;;;5.18;3.70;;;2.90;99.90;;;;;;5053692;28;20254;-69
2021/04/03 04:39:00;;;;;;;3.25;2.30;;;2.90;99.90;;;;;;5035912;28;20220;-69
2021/04/03 04:41:29;;;;;;;4.35;2.83;;;2.80;99.90;;;;;;5054030;28;20181;-70
2021/04/03 04:43:57;;;;;;;10.95;3.83;;;3.40;99.90;;;;;;5035718;28;20223;-69
2021/04/03 04:46:24;;;;;;;6.90;2.63;;;3.30;99.90;;;;;;5035579;28;20720;-69
2021/04/03 04:48:55;;;;;;;6.35;3.45;;;3.20;99.90;;;;;;5036159;28;20192;-69
2021/04/03 04:51:25;;;;;;;3.72;2.88;;;3.30;99.90;;;;;;5035912;28;20228;-68
2021/04/03 04:54:00;;;;;;;5.45;3.85;;;3.20;99.90;;;;;;5036205;28;20551;-69
2021/04/03 04:56:32;;;;;;;5.53;2.92;;;3.10;99.90;;;;;;5035293;28;20217;-69
2021/04/03 04:59:01;;;;;;;4.80;3.95;;;3.10;99.90;;;;;;5035853;28;20234;-68
2021/04/03 05:01:34;;;;;;;6.13;3.25;;;3.80;99.90;;;;;;5035175;28;20185;-69
2021/04/03 05:04:03;;;;;;;4.63;3.53;;;3.90;99.90;;;;;;5034900;28;20189;-69
2021/04/03 05:06:30;;;;;;;7.93;4.10;;;4.60;99.90;;;;;;5052322;28;20227;-69
2021/04/03 05:08:57;;;;;;;7.25;4.75;;;4.50;99.90;;;;;;5034884;28;20247;-68
2021/04/03 05:11:24;;;;;;;10.93;5.47;;;4.90;99.90;;;;;;5052803;28;20213;-68
2021/04/03 05:13:51;;;;;;;5.03;2.80;;;5.50;99.90;;;;;;5034887;28;20189;-68
2021/04/03 05:16:19;;;;;;;5.88;3.25;;;5.80;99.90;;;;;;5052856;28;20296;-69
2021/04/03 05:18:47;;;;;;;11.45;3.45;;;5.70;99.90;;;;;;5052927;28;20185;-70
2021/04/03 05:21:14;;;;;;;5.00;3.28;;;5.30;99.90;;;;;;5035102;28;20188;-69
2021/04/03 05:23:41;;;;;;;5.18;3.85;;;4.40;99.90;;;;;;5053439;28;20276;-68
2021/04/03 05:26:08;;;;;;;7.13;4.07;;;4.20;99.90;;;;;;5035011;28;20253;-68
2021/04/03 05:28:35;;;;;;;7.70;3.78;;;3.70;99.90;;;;;;5054078;28;20173;-68
2021/04/03 05:31:03;;;;;;;10.50;4.13;;;3.70;99.90;;;;;;5053229;28;20212;-69
2021/04/03 05:33:31;;;;;;;6.72;5.05;;;3.60;99.90;;;;;;5052516;28;20185;-68
2021/04/03 05:35:59;;;;;;;6.15;4.25;;;3.40;99.90;;;;;;5052299;28;20193;-68
2021/04/03 05:38:26;;;;;;;12.50;4.43;;;3.50;99.90;;;;;;5052610;28;20203;-69
2021/04/03 05:40:53;;;;;;;3.97;2.95;;;3.60;99.90;;;;;;5052668;28;20260;-68
2021/04/03 05:43:21;;;;;;;8.75;3.95;;;3.40;99.90;;;;;;5052670;28;20181;-69
2021/04/03 05:45:52;;;;;;;8.25;4.63;;;3.40;99.90;;;;;;5051925;28;20184;-69
2021/04/03 05:48:22;;;;;;;6.28;3.80;;;3.40;99.90;;;;;;5052142;28;20223;-69
2021/04/03 05:50:53;;;;;;;13.35;3.50;;;3.40;99.90;;;;;;5052349;28;20212;-68
2021/04/03 05:53:21;;;;;;;13.05;3.03;;;3.50;99.90;;;;;;5052472;28;20684;-69
2021/04/03 05:55:52;;;;;;;6.45;3.28;;;3.70;99.90;;;;;;5051863;28;20196;-68
2021/04/03 05:58:19;;;;;;;7.80;2.92;;;3.80;99.90;;;;;;5052835;28;20204;-68
2021/04/03 06:00:47;;;;;;;5.15;2.65;;;3.90;99.90;;;;;;5053190;28;20220;-68
2021/04/03 06:03:15;;;;;;;7.10;3.55;;;4.50;99.90;;;;;;5052620;28;20724;-69
2021/04/03 06:05:44;;;;;;;5.25;4.00;;;4.80;99.90;;;;;;5051823;28;20284;-68
2021/04/03 06:08:12;;;;;;;4.15;2.60;;;4.80;99.90;;;;;;5051403;28;20211;-69
2021/04/03 06:10:39;;;;;;;7.00;2.88;;;4.60;99.90;;;;;;5051070;28;20210;-69
2021/04/03 06:13:17;;;;;;;3.22;2.50;;;4.40;99.90;;;;;;5062993;28;20268;-69
2021/04/03 06:15:45;;;;;;;5.53;2.25;;;4.30;99.90;;;;;;5051899;28;20198;-69
2021/04/03 06:18:16;;;;;;;7.65;2.45;;;4.70;99.90;;;;;;5060991;28;20294;-68
2021/04/03 06:20:43;;;;;;;10.23;8.57;;;4.70;99.90;;;;;;5072118;28;20199;-69
2021/04/03 06:23:12;;;;;;;12.48;9.55;;;4.50;99.90;;;;;;5071911;28;20180;-69
2021/04/03 06:25:53;;;;;;;9.02;3.90;;;4.50;99.90;;;;;;5053789;28;20180;-68
2021/04/03 06:28:27;;;;;;;7.07;6.13;;;4.50;99.90;;;;;;5072007;28;20718;-69
2021/04/03 06:30:57;;;;;;;4.05;2.55;;;4.60;99.90;;;;;;5071880;28;20187;-69
2021/04/03 06:33:26;;;;;;;7.18;3.03;;;4.70;99.90;;;;;;5071665;28;20180;-69
2021/04/03 06:36:07;;;;;;;6.43;3.08;;;4.60;99.90;;;;;;5053630;28;20192;-69
2021/04/03 06:38:36;;;;;;;3.67;3.33;;;4.70;99.90;;;;;;5053982;28;20226;-69
2021/04/03 06:41:18;;;;;;;8.23;6.47;;;4.70;99.90;;;;;;5071782;28;20188;-69
2021/04/03 06:44:01;;;;;;;5.85;2.92;;;4.90;99.90;;;;;;5054544;28;20202;-69
2021/04/03 06:46:28;;;;;;;9.05;4.32;;;4.90;99.90;;;;;;5071661;28;20204;-69
2021/04/03 06:48:57;;;;;;;1.63;1.50;;;5.10;99.90;;;;;;5071722;28;20184;-69
2021/04/03 06:51:25;;;;;;;4.10;2.33;;;5.10;99.90;;;;;;5071522;28;20282;-67
2021/04/03 06:53:55;;;;;;;3.22;2.90;;;5.00;99.90;;;;;;5067755;28;20196;-68
2021/04/03 06:56:25;;;;;;;2.85;2.30;;;5.30;99.90;;;;;;5063713;28;20201;-69
2021/04/03 06:58:57;;;;;;;3.78;3.15;;;5.50;99.90;;;;;;5066968;28;20253;-68
2021/04/03 07:01:27;;;;;;;4.95;2.88;;;5.60;99.90;;;;;;5075415;28;20172;-69
2021/04/03 07:03:57;;;;;;;3.88;2.72;;;5.60;99.90;;;;;;5058058;28;20234;-68
2021/04/03 07:06:25;;;;;;;2.90;1.80;;;5.70;99.90;;;;;;5075432;28;20215;-69
2021/04/03 07:08:54;;;;;;;2.15;1.95;;;5.60;99.90;;;;;;5076537;28;20183;-69
2021/04/03 07:11:21;;;;;;;2.85;1.42;;;5.80;99.90;;;;;;5075483;28;20239;-69
2021/04/03 07:13:49;;;;;;;8.10;2.17;;;5.80;99.90;;;;;;5075245;28;20207;-68
2021/04/03 07:16:22;;;;;;;4.22;1.50;;;5.80;99.90;;;;;;5076098;28;20267;-69
2021/04/03 07:18:51;;;;;;;3.35;1.70;;;5.90;99.90;;;;;;5075619;28;20195;-69
2021/04/03 07:21:18;;;;;;;3.60;1.20;;;6.00;99.90;;;;;;5076470;28;20519;-70
2021/04/03 07:23:45;;;;;;;3.55;3.25;;;5.90;99.90;;;;;;5074809;28;20219;-68
2021/04/03 07:26:17;;;;;;;1.90;1.65;;;6.00;99.90;;;;;;5074551;28;20184;-68
2021/04/03 07:28:44;;;;;;;2.85;1.50;;;6.20;99.90;;;;;;5074674;28;20275;-68
2021/04/03 07:31:42;;;;;;;3.83;1.55;;;6.20;99.90;;;;;;5074713;28;20200;-68
2021/04/03 07:34:10;;;;;;;2.58;1.75;;;6.30;99.90;;;;;;5057212;28;20233;-68
2021/04/03 07:36:39;;;;;;;13.07;1.52;;;6.40;99.90;;;;;;5075318;28;20211;-70
2021/04/03 07:39:07;;;;;;;2.50;1.30;;;6.50;99.90;;;;;;5056885;28;20673;-69
2021/04/03 07:41:41;;;;;;;2.38;1.00;;;6.50;99.90;;;;;;5074507;28;20180;-68
2021/04/03 07:44:11;;;;;;;2.15;1.70;;;6.60;99.90;;;;;;5074535;28;20177;-69
2021/04/03 07:46:40;;;;;;;1.75;1.10;;;6.90;99.90;;;;;;5074013;28;20282;-68
2021/04/03 07:49:08;;;;;;;2.25;1.40;;;7.00;99.90;;;;;;5069946;28;20185;-68
2021/04/03 07:51:44;;;;;;;2.03;1.17;;;7.10;99.90;;;;;;5054418;28;20213;-68
2021/04/03 07:54:31;;;;;;;1.50;1.23;;;7.20;99.90;;;;;;5053918;28;20668;-70
2021/04/03 07:57:05;;;;;;;2.75;1.00;;;7.00;99.90;;;;;;5053906;28;20209;-69
2021/04/03 07:59:51;;;;;;;2.38;0.98;;;7.00;99.90;;;;;;5054331;28;20227;-69
2021/04/03 08:02:26;;;;;;;5.50;1.35;;;6.90;99.90;;;;;;5053908;28;20199;-70
2021/04/03 08:04:56;;;;;;;1.10;0.80;;;7.10;99.90;;;;;;5053258;28;20610;-68
2021/04/03 08:07:24;;;;;;;6.13;2.58;;;7.10;99.90;;;;;;5071587;28;20214;-69
2021/04/03 08:09:52;;;;;;;3.45;1.83;;;7.20;99.90;;;;;;5073500;28;20188;-68
2021/04/03 08:12:25;;;;;;;5.07;1.35;;;7.30;99.90;;;;;;5073608;28;20291;-68
2021/04/03 08:14:57;;;;;;;1.67;1.20;;;7.30;99.90;;;;;;5073502;28;20262;-69
2021/04/03 08:17:25;;;;;;;2.53;2.33;;;7.40;99.90;;;;;;5073076;28;20257;-69
2021/04/03 08:19:59;;;;;;;3.45;1.42;;;7.40;99.90;;;;;;5060026;28;20218;-68
2021/04/03 08:22:28;;;;;;;2.58;1.25;;;7.40;99.90;;;;;;5030947;28;20205;-69
2021/04/03 08:25:03;;;;;;;2.53;1.30;;;7.50;99.90;;;;;;5046658;28;20192;-70
2021/04/03 08:27:38;;;;;;;8.05;3.78;;;7.60;99.90;;;;;;5054262;28;20227;-70
2021/04/03 08:30:21;;;;;;;1.55;1.13;;;7.80;99.90;;;;;;5054262;28;20185;-68
2021/04/03 08:33:07;;;;;;;1.92;1.27;;;7.90;99.90;;;;;;5054283;28;20559;-69
2021/04/03 08:35:36;;;;;;;1.55;1.17;;;8.00;99.90;;;;;;5053771;28;20535;-69
2021/04/03 08:38:08;;;;;;;5.25;1.13;;;8.00;99.90;;;;;;5053802;28;20648;-70
2021/04/03 08:40:35;;;;;;;1.20;0.68;;;8.00;99.90;;;;;;5053965;28;20184;-68
2021/04/03 08:43:03;;;;;;;15.20;1.63;;;8.50;99.90;;;;;;5053780;28;20696;-68
2021/04/03 08:45:36;;;;;;;2.70;1.05;;;8.50;99.90;;;;;;5053677;28;20543;-70
2021/04/03 08:48:04;;;;;;;2.20;0.93;;;8.70;99.90;;;;;;5052718;28;20219;-69
2021/04/03 08:50:32;;;;;;;1.45;0.70;;;8.40;99.90;;;;;;5052796;28;20915;-68
2021/04/03 08:53:00;;;;;;;0.90;0.60;;;8.40;99.90;;;;;;5052827;28;20267;-69
2021/04/03 08:55:28;;;;;;;4.72;1.20;;;8.20;99.90;;;;;;5052961;28;20181;-68
2021/04/03 08:57:58;;;;;;;2.00;0.75;;;8.00;99.90;;;;;;5053396;28;20767;-68
2021/04/03 09:00:27;;;;;;;5.15;1.63;;;8.00;99.90;;;;;;5053101;28;20654;-68
2021/04/03 09:02:55;;;;;;;3.10;1.50;;;7.90;99.90;;;;;;5053007;28;20173;-68
2021/04/03 09:05:23;;;;;;;0.90;0.68;;;8.10;99.90;;;;;;5052395;28;20200;-69
2021/04/03 09:07:51;;;;;;;1.20;0.70;;;7.90;99.90;;;;;;5052239;28;20218;-69
2021/04/03 09:10:19;;;;;;;1.60;0.73;;;8.00;99.90;;;;;;5053233;28;20184;-68
2021/04/03 09:12:47;;;;;;;1.30;0.90;;;8.30;99.90;;;;;;5053143;28;20185;-69
2021/04/03 09:15:16;;;;;;;3.88;1.10;;;8.30;99.90;;;;;;5053352;28;20180;-68
2021/04/03 09:17:49;;;;;;;1.17;1.00;;;8.50;99.90;;;;;;5052798;28;20200;-69
2021/04/03 09:20:21;;;;;;;7.63;0.80;;;8.60;99.90;;;;;;5051837;28;20214;-70
2021/04/03 09:22:50;;;;;;;3.05;1.00;;;8.60;99.90;;;;;;5052648;28;20271;-69
2021/04/03 09:25:20;;;;;;;1.02;0.70;;;8.50;99.90;;;;;;5052690;28;20275;-70
2021/04/03 09:27:57;;;;;;;3.28;1.42;;;8.30;99.90;;;;;;5052443;28;20209;-71
2021/04/03 09:30:32;;;;;;;1.80;1.13;;;8.30;99.90;;;;;;5052422;28;20678;-68
2021/04/03 09:33:13;;;;;;;1.20;0.70;;;8.40;99.90;;;;;;5052333;28;20188;-68
2021/04/03 09:35:41;;;;;;;3.92;2.13;;;8.30;99.90;;;;;;5033786;28;20258;-69
2021/04/03 09:38:09;;;;;;;8.65;4.05;;;8.10;99.90;;;;;;5051605;28;20208;-70
2021/04/03 09:40:38;;;;;;;2.55;2.25;;;8.50;99.90;;;;;;5051956;28;20208;-69
2021/04/03 09:43:06;;;;;;;2.63;2.22;;;8.80;99.90;;;;;;5052034;28;20403;-68
2021/04/03 09:45:33;;;;;;;2.60;1.35;;;9.00;99.90;;;;;;5052395;28;20177;-69
2021/04/03 09:48:02;;;;;;;2.75;0.80;;;9.30;99.90;;;;;;5051678;28;20295;-69
2021/04/03 09:50:29;;;;;;;2.63;0.70;;;9.50;99.90;;;;;;5050066;28;20238;-68
2021/04/03 09:52:56;;;;;;;2.38;1.65;;;9.70;99.90;;;;;;5050704;28;20311;-68
2021/04/03 09:55:24;;;;;;;3.45;1.20;;;9.90;99.90;;;;;;5036201;28;20185;-70
2021/04/03 09:57:51;;;;;;;5.50;5.00;;;10.10;99.90;;;;;;5057479;28;20754;-68
2021/04/03 10:00:18;;;;;;;4.75;4.32;;;9.60;99.90;;;;;;5050316;28;20234;-70
2021/04/03 10:02:45;;;;;;;2.75;1.75;;;9.20;99.90;;;;;;5060778;28;20191;-69
2021/04/03 10:05:15;;;;;;;1.20;1.05;;;9.10;99.90;;;;;;5046248;28;20193;-69
2021/04/03 10:07:42;;;;;;;2.30;1.00;;;9.00;99.90;;;;;;5051644;28;20296;-69
2021/04/03 10:10:10;;;;;;;1.65;1.55;;;8.70;99.90;;;;;;5051992;28;20228;-70
2021/04/03 10:12:38;;;;;;;2.72;1.35;;;8.50;99.90;;;;;;5051598;28;20215;-69
2021/04/03 10:15:07;;;;;;;4.25;1.90;;;8.50;99.90;;;;;;5051571;28;20547;-69
2021/04/03 10:17:34;;;;;;;1.10;0.95;;;8.60;99.90;;;;;;5050925;28;20240;-69
2021/04/03 10:20:04;;;;;;;8.10;0.85;;;8.90;99.90;;;;;;5051341;28;20193;-70
2021/04/03 10:22:32;;;;;;;1.40;0.93;;;9.00;99.90;;;;;;5050954;28;20188;-70
2021/04/03 10:24:59;;;;;;;1.40;0.90;;;9.00;99.90;;;;;;5050942;28;20581;-68
2021/04/03 10:27:27;;;;;;;1.83;0.93;;;9.00;99.90;;;;;;5050856;28;20209;-71
2021/04/03 10:29:54;;;;;;;1.00;0.70;;;8.80;99.90;;;;;;5050938;28;20816;-70
2021/04/03 10:32:21;;;;;;;1.20;0.73;;;8.70;99.90;;;;;;5051684;28;20215;-69
2021/04/03 10:34:49;;;;;;;1.33;0.80;;;8.80;99.90;;;;;;5051037;28;20169;-69
2021/04/03 10:37:16;;;;;;;1.30;0.70;;;8.70;99.90;;;;;;5051221;28;20716;-68
2021/04/03 10:39:44;;;;;;;1.85;0.90;;;8.80;99.90;;;;;;5051737;28;20173;-67
2021/04/03 10:42:13;;;;;;;3.08;1.02;;;9.10;99.90;;;;;;5036011;28;20173;-70
2021/04/03 10:44:41;;;;;;;1.13;0.80;;;9.30;99.90;;;;;;5054259;28;20173;-69
2021/04/03 10:47:08;;;;;;;1.00;0.50;;;9.40;99.90;;;;;;5052007;28;20209;-69
2021/04/03 10:49:36;;;;;;;1.23;1.13;;;9.30;99.90;;;;;;5051187;28;20195;-68
2021/04/03 10:52:04;;;;;;;3.40;0.80;;;9.20;99.90;;;;;;5051751;28;20200;-70
2021/04/03 10:54:31;;;;;;;2.55;0.70;;;9.10;99.90;;;;;;5050869;28;20185;-69
2021/04/03 10:56:59;;;;;;;0.90;0.60;;;9.00;99.90;;;;;;5050201;28;20208;-69
2021/04/03 10:59:26;;;;;;;3.33;1.45;;;8.80;99.90;;;;;;5049658;28;20267;-70
2021/04/03 11:01:53;;;;;;;1.65;0.60;;;8.60;99.90;;;;;;5031854;28;20582;-70
2021/04/03 11:04:21;;;;;;;3.13;0.75;;;8.50;99.90;;;;;;5049518;28;20235;-70
2021/04/03 11:06:48;;;;;;;0.90;0.70;;;8.50;99.90;;;;;;5049120;28;20702;-69
2021/04/03 11:09:15;;;;;;;2.85;0.88;;;8.50;99.90;;;;;;5049548;28;20207;-68
2021/04/03 11:11:42;;;;;;;1.27;1.10;;;8.40;99.90;;;;;;5050085;28;20574;-69
2021/04/03 11:14:10;;;;;;;2.15;0.90;;;8.30;99.90;;;;;;5050335;28;20255;-70
2021/04/03 11:16:37;;;;;;;1.58;0.75;;;8.20;99.90;;;;;;5050299;28;20236;-69
2021/04/03 11:19:04;;;;;;;3.45;1.00;;;8.30;99.90;;;;;;5048970;28;20199;-69
2021/04/03 11:21:32;;;;;;;1.20;0.88;;;8.40;99.90;;;;;;5050533;28;20527;-70
2021/04/03 11:23:59;;;;;;;1.23;0.98;;;8.60;99.90;;;;;;5050437;28;20188;-68
2021/04/03 11:26:26;;;;;;;4.13;0.80;;;8.70;99.90;;;;;;5050022;28;20209;-70
2021/04/03 11:28:53;;;;;;;1.17;0.70;;;8.90;99.90;;;;;;5050205;28;20283;-69
2021/04/03 11:31:23;;;;;;;1.25;0.75;;;9.20;99.90;;;;;;5032583;28;20208;-69
2021/04/03 11:33:53;;;;;;;1.42;1.17;;;9.00;99.90;;;;;;5049922;28;20215;-71
2021/04/03 11:36:20;;;;;;;2.30;1.10;;;8.70;99.90;;;;;;5050158;28;20217;-69
2021/04/03 11:38:48;;;;;;;1.90;0.55;;;8.70;99.90;;;;;;5044498;28;20838;-69
2021/04/03 11:41:15;;;;;;;1.50;0.80;;;8.70;99.90;;;;;;5040322;28;20597;-69
2021/04/03 11:43:42;;;;;;;1.38;0.60;;;8.70;99.90;;;;;;5031967;28;20646;-70
2021/04/03 11:46:10;;;;;;;1.52;0.90;;;8.80;99.90;;;;;;5033392;28;20189;-67
2021/04/03 11:48:38;;;;;;;0.80;0.60;;;8.90;99.90;;;;;;5033219;28;20182;-70
2021/04/03 11:51:05;;;;;;;1.10;0.75;;;8.90;99.90;;;;;;5033663;28;20741;-69
2021/04/03 11:53:33;;;;;;;2.55;1.45;;;9.10;99.90;;;;;;5036576;28;20181;-70
2021/04/03 11:56:01;;;;;;;2.03;0.80;;;9.30;99.90;;;;;;5053731;28;20592;-69
2021/04/03 11:58:29;;;;;;;2.33;0.95;;;9.40;99.90;;;;;;5053634;28;20173;-69
2021/04/03 12:00:58;;;;;;;1.05;0.70;;;9.70;99.90;;;;;;5053051;28;20259;-69
2021/04/03 12:03:25;;;;;;;0.80;0.50;;;9.50;99.90;;;;;;5052891;28;20188;-68
2021/04/03 12:05:53;;;;;;;1.00;0.75;;;9.40;99.90;;;;;;5052890;28;20555;-69
2021/04/03 12:08:20;;;;;;;3.38;0.80;;;9.70;99.90;;;;;;5053646;28;20625;-69
2021/04/03 12:10:47;;;;;;;1.73;0.70;;;10.00;99.90;;;;;;5051687;28;20618;-70
2021/04/03 12:13:14;;;;;;;1.40;0.80;;;10.00;99.90;;;;;;5045089;28;20265;-70
2021/04/03 12:15:41;;;;;;;2.50;0.65;;;10.10;99.90;;;;;;5052618;28;20193;-69
2021/04/03 12:18:09;;;;;;;0.90;0.50;;;9.90;99.90;;;;;;5046885;28;20219;-69
2021/04/03 12:20:37;;;;;;;1.20;0.77;;;9.50;99.90;;;;;;5052480;28;20184;-70
2021/04/03 12:23:05;;;;;;;1.40;0.70;;;9.80;99.90;;;;;;5050594;28;20199;-70
2021/04/03 12:25:32;;;;;;;1.85;0.70;;;9.80;99.90;;;;;;5043802;28;20185;-71
2021/04/03 12:27:59;;;;;;;1.48;0.98;;;9.80;99.90;;;;;;5052292;28;20220;-69
2021/04/03 12:30:26;;;;;;;0.80;0.50;;;10.10;99.90;;;;;;5052518;28;20670;-70
2021/04/03 12:32:53;;;;;;;1.35;0.60;;;10.40;99.90;;;;;;5051945;28;20216;-69
2021/04/03 12:35:21;;;;;;;0.90;0.63;;;10.50;99.90;;;;;;5052091;28;20181;-71
2021/04/03 12:37:48;;;;;;;1.85;0.90;;;10.60;99.90;;;;;;5052084;28;20215;-70
2021/04/03 12:40:16;;;;;;;1.38;0.95;;;10.20;99.90;;;;;;5034121;28;20534;-69
2021/04/03 12:42:43;;;;;;;1.20;0.75;;;10.00;99.90;;;;;;5052267;28;20381;-69
2021/04/03 12:45:11;;;;;;;1.13;0.88;;;9.80;99.90;;;;;;5052964;28;20189;-70
2021/04/03 12:47:39;;;;;;;1.52;0.70;;;9.40;99.90;;;;;;5052614;28;20224;-69
2021/04/03 12:50:08;;;;;;;2.42;0.77;;;9.30;99.90;;;;;;5050190;28;20220;-69
2021/04/03 12:52:36;;;;;;;2.85;1.20;;;9.70;99.90;;;;;;5050415;28;20212;-69
2021/04/03 12:55:05;;;;;;;1.88;1.52;;;10.00;99.90;;;;;;5037767;28;20227;-71
2021/04/03 12:57:33;;;;;;;1.00;0.60;;;10.00;99.90;;;;;;5037256;28;20220;-70
2021/04/03 13:00:01;;;;;;;1.40;0.98;;;9.80;99.90;;;;;;5042237;28;20285;-69
2021/04/03 13:02:28;;;;;;;1.30;0.90;;;9.80;99.90;;;;;;5051361;28;20200;-70
2021/04/03 13:04:55;;;;;;;1.27;0.80;;;9.50;99.90;;;;;;5046870;28;20607;-69
2021/04/03 13:07:23;;;;;;;1.10;0.68;;;9.40;99.90;;;;;;5032806;28;20213;-70
2021/04/03 13:09:50;;;;;;;1.05;0.80;;;9.30;99.90;;;;;;5032611;28;20324;-68